WETTER-BERLIN-ONLINE
Wetterdaten: aktuell Donnerstag, 26.04.2018 11:05
Datum Zeit Temp.auen rel.Feuchte Luftdruck Regenmenge Wind Richtung Richtung T Regen Taupunkt Windchill
26.04.2018 11:05 12,5 C 74 % 1010,5 hPa 0,0 l/m 23,5 km/h (4 Bft) SW45 220 0 min 8,0 C 12,5 C
26.04.2018 11:00 12,4 C 74 % 1010,5 hPa 0,0 l/m 16,4 km/h (3 Bft) S-SW45 200 0 min 7,9 C 12,4 C
26.04.2018 10:55 12,2 C 74 % 1010,5 hPa 0,0 l/m 18,1 km/h (3 Bft) W-SW45 240 0 min 7,7 C 12,2 C
26.04.2018 10:49 12,0 C 74 % 1010,5 hPa 0,0 l/m 32,0 km/h (5 Bft) SW45 215 0 min 7,5 C 12,0 C
26.04.2018 10:45 11,9 C 74 % 1010,5 hPa 0,0 l/m 16,7 km/h (3 Bft) SW45 220 0 min 7,4 C 11,9 C
26.04.2018 10:40 11,7 C 74 % 1010,5 hPa 0,0 l/m 31,2 km/h (5 Bft) W-SW45 240 0 min 7,2 C 11,7 C
26.04.2018 10:35 11,7 C 74 % 1010,5 hPa 0,0 l/m 24,5 km/h (4 Bft) SW45 215 0 min 7,2 C 11,7 C
26.04.2018 10:30 11,7 C 75 % 1010,5 hPa 0,0 l/m 19,7 km/h (3 Bft) SW67.5 225 0 min 7,4 C 11,7 C
26.04.2018 10:25 11,7 C 75 % 1010,5 hPa 0,0 l/m 17,8 km/h (3 Bft) S-SW67.5 195 0 min 7,4 C 11,7 C
26.04.2018 10:20 11,6 C 75 % 1010,5 hPa 0,0 l/m 12,0 km/h (2 Bft) SW45 215 0 min 7,3 C 11,6 C
26.04.2018 10:15 11,5 C 75 % 1010,5 hPa 0,0 l/m 20,6 km/h (4 Bft) SW67.5 215 0 min 7,2 C 11,5 C
26.04.2018 10:10 11,3 C 75 % 1010,5 hPa 0,0 l/m 19,9 km/h (4 Bft) S-SW67.5 205 0 min 7,0 C 11,3 C
26.04.2018 10:05 11,1 C 75 % 1010,5 hPa 0,0 l/m 12,6 km/h (3 Bft) S-SW45 210 0 min 6,8 C 11,1 C
26.04.2018 10:00 10,9 C 74 % 1010,5 hPa 0,0 l/m 12,0 km/h (2 Bft) S-SW45 195 0 min 6,5 C 10,9 C
26.04.2018 09:55 10,8 C 74 % 1010,5 hPa 0,0 l/m 7,7 km/h (2 Bft) S-SW45 205 0 min 6,4 C 10,8 C
26.04.2018 09:49 10,7 C 74 % 1010,5 hPa 0,0 l/m 12,2 km/h (2 Bft) S67.5 185 0 min 6,3 C 10,7 C
26.04.2018 09:45 10,6 C 74 % 1010,5 hPa 0,0 l/m 8,3 km/h (2 Bft) S-SW22.5 210 0 min 6,2 C 10,6 C
26.04.2018 09:40 10,5 C 74 % 1010,5 hPa 0,0 l/m 7,0 km/h (2 Bft) S-SW45 205 0 min 6,1 C 10,5 C
26.04.2018 09:35 10,5 C 74 % 1010,5 hPa 0,0 l/m 12,5 km/h (2 Bft) SW45 230 0 min 6,1 C 10,5 C
26.04.2018 09:30 10,5 C 74 % 1010,5 hPa 0,0 l/m 9,4 km/h (2 Bft) SW45 235 0 min 6,1 C 10,5 C
26.04.2018 09:25 10,5 C 74 % 1010,5 hPa 0,4 l/m 19,7 km/h (3 Bft) S45 190 5 min 6,1 C 10,5 C
26.04.2018 09:20 10,5 C 75 % 1010,5 hPa 0,0 l/m 19,9 km/h (4 Bft) S-SW45 205 0 min 6,3 C 10,5 C
26.04.2018 09:15 10,5 C 75 % 1010,5 hPa 0,0 l/m 7,9 km/h (2 Bft) S-SW45 210 0 min 6,3 C 10,5 C
26.04.2018 09:10 10,5 C 75 % 1010,5 hPa 0,0 l/m 17,7 km/h (3 Bft) S-SW45 205 0 min 6,3 C 10,5 C
26.04.2018 09:05 10,5 C 75 % 1010,5 hPa 0,0 l/m 17,6 km/h (3 Bft) S-SW45 195 0 min 6,3 C 10,5 C
26.04.2018 09:00 10,4 C 75 % 1010,5 hPa 0,0 l/m 11,0 km/h (2 Bft) S-SW45 210 0 min 6,2 C 10,4 C
26.04.2018 08:55 10,3 C 75 % 1010,5 hPa 0,0 l/m 10,8 km/h (2 Bft) S45 185 0 min 6,1 C 10,3 C
26.04.2018 08:49 10,3 C 75 % 1010,5 hPa 0,0 l/m 14,2 km/h (3 Bft) SW22.5 220 0 min 6,1 C 10,3 C
26.04.2018 08:45 10,2 C 75 % 1010,5 hPa 0,0 l/m 17,0 km/h (3 Bft) S-SW67.5 195 0 min 6,0 C 10,2 C
26.04.2018 08:40 10,0 C 75 % 1010,5 hPa 0,0 l/m 11,8 km/h (2 Bft) S-SW45 195 0 min 5,8 C 8,3 C
26.04.2018 08:35 10,0 C 75 % 1010,5 hPa 0,0 l/m 1,0 km/h (0 Bft) S45 190 0 min 5,8 C 10,0 C
26.04.2018 08:30 9,9 C 75 % 1010,5 hPa 0,0 l/m 15,6 km/h (3 Bft) S45 185 0 min 5,7 C 7,7 C
26.04.2018 08:25 9,8 C 75 % 1010,5 hPa 0,0 l/m 8,1 km/h (2 Bft) S-SW67.5 205 0 min 5,6 C 8,8 C
26.04.2018 08:20 9,8 C 75 % 1010,5 hPa 0,0 l/m 21,1 km/h (4 Bft) S45 180 0 min 5,6 C 7,0 C
26.04.2018 08:15 9,7 C 76 % 1010,5 hPa 0,0 l/m 13,6 km/h (3 Bft) S-SW67.5 205 0 min 5,7 C 7,7 C
26.04.2018 08:10 9,6 C 76 % 1010,5 hPa 0,0 l/m 8,1 km/h (2 Bft) S67.5 170 0 min 5,6 C 8,5 C
26.04.2018 08:05 9,5 C 76 % 1010,5 hPa 0,0 l/m 12,7 km/h (3 Bft) S45 170 0 min 5,5 C 7,6 C
26.04.2018 08:00 9,4 C 76 % 1010,5 hPa 0,0 l/m 10,1 km/h (2 Bft) S67.5 190 0 min 5,4 C 7,9 C
26.04.2018 07:55 9,3 C 76 % 1010,5 hPa 0,0 l/m 2,3 km/h (1 Bft) S22.5 175 0 min 5,3 C 9,3 C
26.04.2018 07:50 9,1 C 76 % 1010,5 hPa 0,0 l/m 13,4 km/h (3 Bft) S-SO22.5 165 0 min 5,1 C 7,0 C
26.04.2018 07:44 9,0 C 76 % 1010,5 hPa 0,0 l/m 8,9 km/h (2 Bft) S-SO22.5 165 0 min 5,0 C 7,6 C
26.04.2018 07:40 8,9 C 76 % 1010,5 hPa 0,0 l/m 15,6 km/h (3 Bft) S67.5 170 0 min 4,9 C 6,5 C
26.04.2018 07:35 8,8 C 76 % 1010,5 hPa 0,0 l/m 12,8 km/h (3 Bft) S67.5 190 0 min 4,8 C 6,7 C
26.04.2018 07:30 8,7 C 76 % 1010,5 hPa 0,0 l/m 6,7 km/h (2 Bft) S-SO22.5 165 0 min 4,7 C 7,8 C
26.04.2018 07:25 8,6 C 76 % 1010,5 hPa 0,0 l/m 10,0 km/h (2 Bft) S45 190 0 min 4,6 C 7,0 C
26.04.2018 07:20 8,6 C 76 % 1010,5 hPa 0,0 l/m 5,6 km/h (2 Bft) S22.5 170 0 min 4,6 C 8,0 C
26.04.2018 07:15 8,5 C 76 % 1010,5 hPa 0,0 l/m 6,1 km/h (2 Bft) S22.5 180 0 min 4,5 C 7,7 C
26.04.2018 07:10 8,4 C 76 % 1010,5 hPa 0,0 l/m 0,9 km/h (0 Bft) S22.5 190 0 min 4,4 C 8,4 C
26.04.2018 07:05 8,3 C 76 % 1010,5 hPa 0,0 l/m 0,0 km/h (0 Bft) S-SW22.5 205 0 min 4,3 C 8,3 C
26.04.2018 07:00 8,2 C 76 % 1010,5 hPa 0,0 l/m 0,0 km/h (0 Bft) S-SW22.5 205 0 min 4,2 C 8,2 C
26.04.2018 06:55 8,1 C 76 % 1010,5 hPa 0,0 l/m 0,0 km/h (0 Bft) S-SW22.5 205 0 min 4,1 C 8,1 C
26.04.2018 06:50 8,0 C 76 % 1010,5 hPa 0,0 l/m 0,0 km/h (0 Bft) S 190 0 min 4,0 C 8,0 C
26.04.2018 06:45 7,8 C 76 % 1010,5 hPa 0,0 l/m 0,0 km/h (0 Bft) W-SW 250 0 min 3,8 C 7,8 C
26.04.2018 06:40 7,7 C 76 % 1010,5 hPa 0,0 l/m 0,0 km/h (0 Bft) W-SW 250 0 min 3,7 C 7,7 C
26.04.2018 06:34 7,6 C 76 % 1010,5 hPa 0,0 l/m 0,0 km/h (0 Bft) W-SW 250 0 min 3,6 C 7,6 C
26.04.2018 06:30 7,5 C 76 % 1010,5 hPa 0,0 l/m 0,0 km/h (0 Bft) W-SW 250 0 min 3,5 C 7,5 C
26.04.2018 06:25 7,3 C 76 % 1010,5 hPa 0,0 l/m 0,0 km/h (0 Bft) W-SW 250 0 min 3,4 C 7,3 C
26.04.2018 06:20 7,3 C 76 % 1010,5 hPa 0,0 l/m 0,4 km/h (0 Bft) W-SW 250 0 min 3,4 C 7,3 C
26.04.2018 06:15 7,1 C 76 % 1010,5 hPa 0,0 l/m 5,6 km/h (2 Bft) S-SW 195 0 min 3,2 C 6,3 C
26.04.2018 06:10 7,0 C 75 % 1010,5 hPa 0,0 l/m 5,6 km/h (2 Bft) S-SW 195 0 min 2,9 C 6,1 C
26.04.2018 06:05 7,0 C 75 % 1010,5 hPa 0,0 l/m 7,1 km/h (2 Bft) S-SW22.5 195 0 min 2,9 C 5,7 C
26.04.2018 06:00 7,0 C 75 % 1010,5 hPa 0,0 l/m 0,0 km/h (0 Bft) S-SW 200 0 min 2,9 C 7,0 C
26.04.2018 05:55 6,9 C 75 % 1010,6 hPa 0,0 l/m 0,3 km/h (0 Bft) S-SO45 165 0 min 2,8 C 6,9 C
26.04.2018 05:50 6,9 C 75 % 1010,6 hPa 0,0 l/m 0,6 km/h (0 Bft) S-SW22.5 195 0 min 2,8 C 6,9 C
26.04.2018 05:45 6,9 C 75 % 1010,6 hPa 0,0 l/m 0,6 km/h (0 Bft) SW22.5 215 0 min 2,8 C 6,9 C
26.04.2018 05:40 6,9 C 75 % 1010,6 hPa 0,0 l/m 0,1 km/h (0 Bft) S-SW 205 0 min 2,8 C 6,9 C
26.04.2018 05:35 6,9 C 75 % 1010,6 hPa 0,0 l/m 0,3 km/h (0 Bft) S-SW 205 0 min 2,8 C 6,9 C
26.04.2018 05:30 6,9 C 75 % 1010,6 hPa 0,0 l/m 0,0 km/h (0 Bft) SW 215 0 min 2,8 C 6,9 C
26.04.2018 05:25 7,0 C 74 % 1010,5 hPa 0,0 l/m 5,6 km/h (2 Bft) S45 170 0 min 2,7 C 6,1 C
26.04.2018 05:19 7,0 C 74 % 1010,5 hPa 0,0 l/m 10,7 km/h (2 Bft) S-SW22.5 200 0 min 2,7 C 4,9 C
26.04.2018 05:15 7,0 C 74 % 1010,5 hPa 0,0 l/m 1,6 km/h (1 Bft) S22.5 190 0 min 2,7 C 7,0 C
26.04.2018 05:10 7,0 C 74 % 1010,5 hPa 0,0 l/m 1,2 km/h (1 Bft) SW45 215 0 min 2,7 C 7,0 C
26.04.2018 05:05 7,0 C 74 % 1010,5 hPa 0,0 l/m 6,5 km/h (2 Bft) S-SW45 200 0 min 2,7 C 5,9 C
26.04.2018 05:00 7,0 C 74 % 1010,5 hPa 0,0 l/m 1,1 km/h (1 Bft) S-SW 210 0 min 2,7 C 7,0 C
26.04.2018 04:55 7,1 C 74 % 1010,5 hPa 0,0 l/m 0,4 km/h (0 Bft) SW22.5 225 0 min 2,8 C 7,1 C
26.04.2018 04:50 7,1 C 74 % 1010,5 hPa 0,0 l/m 0,4 km/h (0 Bft) SW 225 0 min 2,8 C 7,1 C
26.04.2018 04:45 7,1 C 74 % 1010,5 hPa 0,0 l/m 6,7 km/h (2 Bft) SW67.5 225 0 min 2,8 C 5,9 C
26.04.2018 04:40 7,1 C 74 % 1010,5 hPa 0,0 l/m 10,3 km/h (2 Bft) SW45 225 0 min 2,8 C 5,1 C
26.04.2018 04:35 7,1 C 74 % 1010,5 hPa 0,0 l/m 7,8 km/h (2 Bft) S-SW67.5 200 0 min 2,8 C 5,6 C
26.04.2018 04:30 7,2 C 74 % 1010,5 hPa 0,0 l/m 8,1 km/h (2 Bft) S45 190 0 min 2,9 C 5,7 C
26.04.2018 04:25 7,2 C 74 % 1010,5 hPa 0,0 l/m 0,7 km/h (0 Bft) S-SW45 205 0 min 2,9 C 7,2 C
26.04.2018 04:20 7,2 C 73 % 1010,5 hPa 0,0 l/m 0,9 km/h (0 Bft) S-SW22.5 205 0 min 2,7 C 7,2 C
26.04.2018 04:15 7,2 C 73 % 1010,5 hPa 0,0 l/m 1,3 km/h (1 Bft) S22.5 180 0 min 2,7 C 7,2 C
26.04.2018 04:09 7,2 C 73 % 1010,5 hPa 0,0 l/m 5,9 km/h (2 Bft) S22.5 170 0 min 2,7 C 6,3 C
26.04.2018 04:05 7,2 C 73 % 1010,5 hPa 0,0 l/m 9,8 km/h (2 Bft) S-SW45 205 0 min 2,7 C 5,3 C
26.04.2018 04:00 7,3 C 73 % 1010,5 hPa 0,0 l/m 7,8 km/h (2 Bft) S-SW22.5 200 0 min 2,8 C 5,9 C
26.04.2018 03:55 7,3 C 73 % 1010,5 hPa 0,0 l/m 0,0 km/h (0 Bft) SW 220 0 min 2,8 C 7,3 C
26.04.2018 03:50 7,3 C 73 % 1010,5 hPa 0,0 l/m 0,2 km/h (0 Bft) S-SW 195 0 min 2,8 C 7,3 C
26.04.2018 03:45 7,4 C 72 % 1010,5 hPa 0,0 l/m 0,3 km/h (0 Bft) S-SW 200 0 min 2,7 C 7,4 C
26.04.2018 03:40 7,5 C 72 % 1010,5 hPa 0,0 l/m 0,4 km/h (0 Bft) S-SW22.5 200 0 min 2,8 C 7,5 C
26.04.2018 03:35 7,5 C 72 % 1010,5 hPa 0,0 l/m 0,2 km/h (0 Bft) S 190 0 min 2,8 C 7,5 C
26.04.2018 03:30 7,5 C 72 % 1010,5 hPa 0,0 l/m 0,4 km/h (0 Bft) S-SW22.5 210 0 min 2,8 C 7,5 C
26.04.2018 03:25 7,6 C 72 % 1010,5 hPa 0,0 l/m 0,0 km/h (0 Bft) S-SW 200 0 min 2,9 C 7,6 C
26.04.2018 03:20 7,6 C 72 % 1010,5 hPa 0,0 l/m 0,0 km/h (0 Bft) S-SW 200 0 min 2,9 C 7,6 C
26.04.2018 03:15 7,7 C 72 % 1010,5 hPa 0,0 l/m 5,7 km/h (2 Bft) SW22.5 235 0 min 3,0 C 6,9 C
26.04.2018 03:10 7,7 C 72 % 1010,5 hPa 0,0 l/m 0,1 km/h (0 Bft) S22.5 180 0 min 3,0 C 7,7 C
26.04.2018 03:05 7,9 C 72 % 1010,5 hPa 0,0 l/m 0,1 km/h (0 Bft) W 265 0 min 3,2 C 7,9 C
26.04.2018 03:00 7,9 C 72 % 1010,5 hPa 0,0 l/m 0,1 km/h (0 Bft) W-SW 250 0 min 3,2 C 7,9 C
26.04.2018 02:54 8,0 C 71 % 1010,5 hPa 0,0 l/m 0,0 km/h (0 Bft) W-SW 250 0 min 3,1 C 8,0 C
26.04.2018 02:50 8,0 C 71 % 1010,5 hPa 0,0 l/m 0,2 km/h (0 Bft) S-SW22.5 210 0 min 3,1 C 8,0 C
26.04.2018 02:45 8,1 C 71 % 1010,5 hPa 0,0 l/m 0,3 km/h (0 Bft) W67.5 260 0 min 3,2 C 8,1 C
26.04.2018 02:40 8,1 C 71 % 1010,5 hPa 0,0 l/m 1,0 km/h (0 Bft) W 260 0 min 3,2 C 8,1 C
26.04.2018 02:35 8,2 C 71 % 1010,5 hPa 0,0 l/m 0,3 km/h (0 Bft) W-SW 240 0 min 3,3 C 8,2 C
26.04.2018 02:30 8,2 C 71 % 1010,5 hPa 0,0 l/m 1,8 km/h (1 Bft) W-SW 250 0 min 3,3 C 8,2 C
26.04.2018 02:25 8,3 C 71 % 1010,5 hPa 0,0 l/m 0,3 km/h (0 Bft) W-SW 245 0 min 3,4 C 8,3 C
26.04.2018 02:20 8,3 C 71 % 1010,5 hPa 0,0 l/m 6,1 km/h (2 Bft) S-SW45 210 0 min 3,4 C 7,5 C
26.04.2018 02:15 8,5 C 71 % 1010,5 hPa 0,0 l/m 2,7 km/h (1 Bft) SW45 215 0 min 3,5 C 8,5 C
26.04.2018 02:10 8,5 C 71 % 1010,5 hPa 0,0 l/m 9,9 km/h (2 Bft) S-SW67.5 205 0 min 3,5 C 6,9 C
26.04.2018 02:05 8,5 C 71 % 1010,5 hPa 0,0 l/m 8,1 km/h (2 Bft) SW45 215 0 min 3,5 C 7,2 C
26.04.2018 02:00 8,6 C 71 % 1010,5 hPa 0,0 l/m 8,1 km/h (2 Bft) SW45 215 0 min 3,6 C 7,3 C
26.04.2018 01:55 8,6 C 71 % 1010,5 hPa 0,0 l/m 9,8 km/h (2 Bft) SW45 215 0 min 3,6 C 7,0 C
26.04.2018 01:50 8,6 C 71 % 1010,5 hPa 0,0 l/m 5,4 km/h (2 Bft) SW45 230 0 min 3,6 C 8,0 C
26.04.2018 01:44 8,6 C 70 % 1010,5 hPa 0,0 l/m 5,8 km/h (2 Bft) S-SW22.5 205 0 min 3,4 C 7,9 C
26.04.2018 01:40 8,6 C 70 % 1010,5 hPa 0,0 l/m 10,2 km/h (2 Bft) S-SW45 205 0 min 3,4 C 6,9 C
26.04.2018 01:35 8,7 C 70 % 1010,5 hPa 0,0 l/m 10,2 km/h (2 Bft) S-SW45 205 0 min 3,5 C 7,0 C
26.04.2018 01:30 8,8 C 70 % 1010,5 hPa 0,0 l/m 1,2 km/h (1 Bft) W-SW 240 0 min 3,6 C 8,8 C
26.04.2018 01:25 8,8 C 70 % 1010,5 hPa 0,0 l/m 9,3 km/h (2 Bft) S-SW45 210 0 min 3,6 C 7,3 C
26.04.2018 01:20 8,9 C 70 % 1010,5 hPa 0,0 l/m 7,8 km/h (2 Bft) S-SW45 210 0 min 3,7 C 7,8 C
26.04.2018 01:15 8,9 C 70 % 1010,5 hPa 0,0 l/m 7,6 km/h (2 Bft) S-SW45 205 0 min 3,7 C 7,8 C
26.04.2018 01:10 9,0 C 70 % 1010,5 hPa 0,0 l/m 11,1 km/h (2 Bft) SW45 215 0 min 3,8 C 7,2 C
26.04.2018 01:05 9,0 C 70 % 1010,5 hPa 0,0 l/m 8,1 km/h (2 Bft) SW45 220 0 min 3,8 C 7,8 C
26.04.2018 01:00 9,0 C 70 % 1010,5 hPa 0,0 l/m 2,4 km/h (1 Bft) S-SW45 210 0 min 3,8 C 9,0 C
26.04.2018 00:55 8,9 C 70 % 1010,5 hPa 0,0 l/m 1,5 km/h (1 Bft) SW45 235 0 min 3,7 C 8,9 C
26.04.2018 00:50 8,9 C 70 % 1010,5 hPa 0,0 l/m 8,0 km/h (2 Bft) SW67.5 215 0 min 3,7 C 7,7 C
26.04.2018 00:45 8,8 C 70 % 1010,5 hPa 0,0 l/m 9,1 km/h (2 Bft) SW45 215 0 min 3,6 C 7,4 C
26.04.2018 00:40 8,8 C 70 % 1010,5 hPa 0,0 l/m 8,7 km/h (2 Bft) SW45 225 0 min 3,6 C 7,4 C
26.04.2018 00:35 8,8 C 70 % 1010,5 hPa 0,0 l/m 7,9 km/h (2 Bft) SW22.5 230 0 min 3,6 C 7,6 C
26.04.2018 00:30 8,9 C 70 % 1010,5 hPa 0,0 l/m 8,3 km/h (2 Bft) S-SW45 210 0 min 3,7 C 7,7 C
26.04.2018 00:25 8,9 C 70 % 1010,5 hPa 0,0 l/m 0,9 km/h (0 Bft) SW22.5 225 0 min 3,7 C 8,9 C
26.04.2018 00:20 8,8 C 70 % 1010,5 hPa 0,0 l/m 8,5 km/h (2 Bft) SW45 215 0 min 3,6 C 7,5 C
26.04.2018 00:15 8,7 C 70 % 1010,5 hPa 0,0 l/m 0,2 km/h (0 Bft) S-SW 205 0 min 3,5 C 8,7 C
26.04.2018 00:10 8,7 C 70 % 1010,5 hPa 0,0 l/m 1,3 km/h (1 Bft) S-SW 200 0 min 3,5 C 8,7 C
26.04.2018 00:05 8,7 C 70 % 1010,5 hPa 0,0 l/m 0,9 km/h (0 Bft) S 190 0 min 3,5 C 8,7 C
26.04.2018 00:00 8,7 C 69 % 1010,5 hPa 0,0 l/m 5,3 km/h (1 Bft) S-SW22.5 195 0 min 3,3 C 8,2 C
_ Min-Zeit 05:30 00:00 11:05 - 02:54 - - - 05:00 05:19
Minimum _ 6,9 C 69 % 1010,5 hPa - 0,0 km/h (0 Bft) - - - 2,7 C 4,9 C
_ Max-Zeit 11:05 06:15 05:30 09:25 10:49 - - 09:25 11:05 11:05
Maximum _ 12,5 C 76 % 1010,6 hPa 0,4 l/m 32,0 km/h
SW (5 Bft)
- - 5 min 8,0 C 12,5 C
Durchschnitt _ 8,8 C 73 % 1010,5 hPa #0,4 l/m 7,1 km/h (2 Bft) S-SW - #5 min. 4,3 C 8,2 C